sensor_id;sensor_type;location;lat;lon;timestamp;temperature;humidity
64468;DHT22;50853;46.836;16.820;2023-01-26T06:43:51;18.80;40.60
64468;DHT22;50853;46.836;16.820;2023-01-26T06:46:17;18.70;40.60
64468;DHT22;50853;46.836;16.820;2023-01-26T06:48:42;18.70;40.60
64468;DHT22;50853;46.836;16.820;2023-01-26T06:54:03;18.60;40.60
64468;DHT22;50853;46.836;16.820;2023-01-26T06:56:29;18.60;40.50
64468;DHT22;50853;46.836;16.820;2023-01-26T06:58:55;18.60;40.30
64468;DHT22;50853;46.836;16.820;2023-01-26T07:01:24;18.60;40.30
64468;DHT22;50853;46.836;16.820;2023-01-26T07:03:53;18.60;40.30
64468;DHT22;50853;46.836;16.820;2023-01-26T07:06:19;18.70;40.60
64468;DHT22;50853;46.836;16.820;2023-01-26T07:08:46;18.70;40.00
64468;DHT22;50853;46.836;16.820;2023-01-26T07:11:12;18.60;39.90
64468;DHT22;50853;46.836;16.820;2023-01-26T07:13:38;18.60;40.00
64468;DHT22;50853;46.836;16.820;2023-01-26T07:16:06;18.90;40.90
64468;DHT22;50853;46.836;16.820;2023-01-26T07:18:32;19.00;40.90
64468;DHT22;50853;46.836;16.820;2023-01-26T07:21:13;19.20;40.90
64468;DHT22;50853;46.836;16.820;2023-01-26T07:23:39;19.20;40.90
64468;DHT22;50853;46.836;16.820;2023-01-26T07:26:05;19.30;41.00
64468;DHT22;50853;46.836;16.820;2023-01-26T07:28:31;19.40;41.10
64468;DHT22;50853;46.836;16.820;2023-01-26T07:31:02;19.40;41.20
64468;DHT22;50853;46.836;16.820;2023-01-26T07:33:32;19.50;41.40
64468;DHT22;50853;46.836;16.820;2023-01-26T07:35:58;19.60;41.50
64468;DHT22;50853;46.836;16.820;2023-01-26T07:38:25;19.60;41.70
64468;DHT22;50853;46.836;16.820;2023-01-26T07:40:55;19.70;41.60
64468;DHT22;50853;46.836;16.820;2023-01-26T07:43:21;19.70;41.60
64468;DHT22;50853;46.836;16.820;2023-01-26T07:46:02;19.70;41.80
64468;DHT22;50853;46.836;16.820;2023-01-26T07:48:28;19.70;41.60
64468;DHT22;50853;46.836;16.820;2023-01-26T07:50:58;19.70;41.60
64468;DHT22;50853;46.836;16.820;2023-01-26T07:53:24;19.80;41.90
64468;DHT22;50853;46.836;16.820;2023-01-26T07:55:52;19.80;42.00
64468;DHT22;50853;46.836;16.820;2023-01-26T07:58:18;19.90;41.90
64468;DHT22;50853;46.836;16.820;2023-01-26T08:00:43;19.90;41.70
64468;DHT22;50853;46.836;16.820;2023-01-26T08:03:12;19.90;41.80
64468;DHT22;50853;46.836;16.820;2023-01-26T08:05:38;19.90;41.80
64468;DHT22;50853;46.836;16.820;2023-01-26T08:08:04;20.00;42.10
64468;DHT22;50853;46.836;16.820;2023-01-26T08:10:30;20.00;42.00
64468;DHT22;50853;46.836;16.820;2023-01-26T08:12:58;20.00;42.20
64468;DHT22;50853;46.836;16.820;2023-01-26T08:15:25;20.10;42.20
64468;DHT22;50853;46.836;16.820;2023-01-26T08:17:52;20.10;42.00
64468;DHT22;50853;46.836;16.820;2023-01-26T08:20:18;20.10;42.10
64468;DHT22;50853;46.836;16.820;2023-01-26T08:22:44;20.20;42.20
64468;DHT22;50853;46.836;16.820;2023-01-26T08:25:10;20.30;41.90
64468;DHT22;50853;46.836;16.820;2023-01-26T08:27:35;20.30;42.00
64468;DHT22;50853;46.836;16.820;2023-01-26T08:30:01;20.20;42.20
64468;DHT22;50853;46.836;16.820;2023-01-26T08:32:28;20.20;42.30
64468;DHT22;50853;46.836;16.820;2023-01-26T08:34:54;20.20;42.40
64468;DHT22;50853;46.836;16.820;2023-01-26T08:37:20;20.20;42.40
64468;DHT22;50853;46.836;16.820;2023-01-26T08:39:46;20.20;42.40
64468;DHT22;50853;46.836;16.820;2023-01-26T08:42:11;20.20;42.70
64468;DHT22;50853;46.836;16.820;2023-01-26T08:44:37;20.40;42.20
64468;DHT22;50853;46.836;16.820;2023-01-26T08:47:03;20.40;42.20
64468;DHT22;50853;46.836;16.820;2023-01-26T08:49:28;20.30;42.30
64468;DHT22;50853;46.836;16.820;2023-01-26T08:51:54;20.40;42.60
64468;DHT22;50853;46.836;16.820;2023-01-26T08:54:20;20.60;42.50
64468;DHT22;50853;46.836;16.820;2023-01-26T08:56:46;20.50;42.60
64468;DHT22;50853;46.836;16.820;2023-01-26T08:59:11;20.60;42.50
64468;DHT22;50853;46.836;16.820;2023-01-26T09:01:37;20.60;42.50
64468;DHT22;50853;46.836;16.820;2023-01-26T09:04:03;20.50;42.20
64468;DHT22;50853;46.836;16.820;2023-01-26T09:06:28;20.10;41.10
64468;DHT22;50853;46.836;16.820;2023-01-26T09:08:55;20.10;42.20
64468;DHT22;50853;46.836;16.820;2023-01-26T09:11:20;20.30;42.40
64468;DHT22;50853;46.836;16.820;2023-01-26T09:13:49;20.30;42.30
64468;DHT22;50853;46.836;16.820;2023-01-26T09:16:21;20.30;42.50
64468;DHT22;50853;46.836;16.820;2023-01-26T09:18:51;20.40;42.60
64468;DHT22;50853;46.836;16.820;2023-01-26T09:21:18;20.40;42.60
64468;DHT22;50853;46.836;16.820;2023-01-26T09:23:44;20.40;42.60
64468;DHT22;50853;46.836;16.820;2023-01-26T09:26:10;20.60;42.50
64468;DHT22;50853;46.836;16.820;2023-01-26T09:28:36;20.60;42.30
64468;DHT22;50853;46.836;16.820;2023-01-26T09:31:03;20.60;42.50
64468;DHT22;50853;46.836;16.820;2023-01-26T09:33:29;20.60;42.70
64468;DHT22;50853;46.836;16.820;2023-01-26T09:35:55;20.60;42.70
64468;DHT22;50853;46.836;16.820;2023-01-26T09:38:20;20.60;42.70
64468;DHT22;50853;46.836;16.820;2023-01-26T09:43:41;20.60;42.50
64468;DHT22;50853;46.836;16.820;2023-01-26T09:46:53;20.70;42.50
64468;DHT22;50853;46.836;16.820;2023-01-26T09:49:50;20.70;42.60
64468;DHT22;50853;46.836;16.820;2023-01-26T09:53:21;20.70;42.60
64468;DHT22;50853;46.836;16.820;2023-01-26T09:55:40;20.70;43.80
64468;DHT22;50853;46.836;16.820;2023-01-26T09:58:16;20.70;42.50
64468;DHT22;50853;46.836;16.820;2023-01-26T10:00:59;20.70;43.50
64468;DHT22;50853;46.836;16.820;2023-01-26T10:03:47;20.70;42.70
64468;DHT22;50853;46.836;16.820;2023-01-26T10:06:26;20.70;42.50
64468;DHT22;50853;46.836;16.820;2023-01-26T10:12:03;20.30;42.00
64468;DHT22;50853;46.836;16.820;2023-01-26T10:14:36;20.10;42.00
64468;DHT22;50853;46.836;16.820;2023-01-26T10:17:13;20.00;41.70
64468;DHT22;50853;46.836;16.820;2023-01-26T10:19:54;19.90;41.60
64468;DHT22;50853;46.836;16.820;2023-01-26T10:22:32;20.00;40.60
64468;DHT22;50853;46.836;16.820;2023-01-26T10:25:00;19.90;40.90
64468;DHT22;50853;46.836;16.820;2023-01-26T10:27:27;19.80;40.10
64468;DHT22;50853;46.836;16.820;2023-01-26T10:29:54;19.70;40.00
64468;DHT22;50853;46.836;16.820;2023-01-26T10:32:19;19.60;39.90
64468;DHT22;50853;46.836;16.820;2023-01-26T10:34:47;19.50;39.80
64468;DHT22;50853;46.836;16.820;2023-01-26T10:37:27;19.50;39.70
64468;DHT22;50853;46.836;16.820;2023-01-26T10:40:00;19.50;40.10
64468;DHT22;50853;46.836;16.820;2023-01-26T10:42:31;19.50;39.80
64468;DHT22;50853;46.836;16.820;2023-01-26T10:45:02;19.60;40.00
64468;DHT22;50853;46.836;16.820;2023-01-26T10:47:28;19.50;39.80
64468;DHT22;50853;46.836;16.820;2023-01-26T10:50:17;19.50;39.90
64468;DHT22;50853;46.836;16.820;2023-01-26T10:53:01;19.50;39.80
64468;DHT22;50853;46.836;16.820;2023-01-26T10:55:28;19.50;39.80
64468;DHT22;50853;46.836;16.820;2023-01-26T10:57:55;19.50;40.80
64468;DHT22;50853;46.836;16.820;2023-01-26T11:02:54;19.50;39.80
64468;DHT22;50853;46.836;16.820;2023-01-26T11:05:24;19.40;39.80
64468;DHT22;50853;46.836;16.820;2023-01-26T11:07:53;19.40;39.80
64468;DHT22;50853;46.836;16.820;2023-01-26T11:10:37;19.50;39.70
64468;DHT22;50853;46.836;16.820;2023-01-26T11:13:18;19.50;39.70
64468;DHT22;50853;46.836;16.820;2023-01-26T11:16:33;19.40;40.00
64468;DHT22;50853;46.836;16.820;2023-01-26T11:24:31;19.40;40.10
64468;DHT22;50853;46.836;16.820;2023-01-26T11:46:06;19.60;40.20
64468;DHT22;50853;46.836;16.820;2023-01-26T11:56:59;19.60;40.90
64468;DHT22;50853;46.836;16.820;2023-01-26T11:59:39;19.60;40.50
64468;DHT22;50853;46.836;16.820;2023-01-26T12:02:29;19.60;40.30
64468;DHT22;50853;46.836;16.820;2023-01-26T12:05:11;19.60;40.40
64468;DHT22;50853;46.836;16.820;2023-01-26T12:07:58;19.60;41.50
64468;DHT22;50853;46.836;16.820;2023-01-26T12:10:50;19.60;40.30
64468;DHT22;50853;46.836;16.820;2023-01-26T12:16:01;19.70;40.30
64468;DHT22;50853;46.836;16.820;2023-01-26T12:18:35;19.70;40.30
